sensor_id;sensor_type;location;lat;lon;timestamp;P1;durP1;ratioP1;P2;durP2;ratioP2
20365;SDS011;10341;49.894;8.822;2023-01-15T00:02:05;0.90;;;0.80;;
20365;SDS011;10341;49.894;8.822;2023-01-15T00:07:24;0.88;;;0.70;;
20365;SDS011;10341;49.894;8.822;2023-01-15T00:12:43;2.05;;;1.20;;
20365;SDS011;10341;49.894;8.822;2023-01-15T00:18:02;0.60;;;0.60;;
20365;SDS011;10341;49.894;8.822;2023-01-15T00:23:22;0.75;;;0.60;;
20365;SDS011;10341;49.894;8.822;2023-01-15T00:29:07;1.67;;;0.85;;
20365;SDS011;10341;49.894;8.822;2023-01-15T00:39:48;0.60;;;0.60;;
20365;SDS011;10341;49.894;8.822;2023-01-15T00:45:09;0.93;;;0.77;;
20365;SDS011;10341;49.894;8.822;2023-01-15T00:50:29;0.70;;;0.70;;
20365;SDS011;10341;49.894;8.822;2023-01-15T00:55:49;1.20;;;0.75;;
20365;SDS011;10341;49.894;8.822;2023-01-15T01:01:08;0.80;;;0.70;;
20365;SDS011;10341;49.894;8.822;2023-01-15T01:06:27;0.65;;;0.55;;
20365;SDS011;10341;49.894;8.822;2023-01-15T01:11:47;0.63;;;0.63;;
20365;SDS011;10341;49.894;8.822;2023-01-15T01:17:07;0.77;;;0.50;;
20365;SDS011;10341;49.894;8.822;2023-01-15T01:22:27;1.17;;;0.60;;
20365;SDS011;10341;49.894;8.822;2023-01-15T01:27:46;0.50;;;0.50;;
20365;SDS011;10341;49.894;8.822;2023-01-15T01:33:07;1.05;;;0.60;;
20365;SDS011;10341;49.894;8.822;2023-01-15T01:38:26;0.50;;;0.50;;
20365;SDS011;10341;49.894;8.822;2023-01-15T01:43:56;1.15;;;0.57;;
20365;SDS011;10341;49.894;8.822;2023-01-15T01:49:21;0.93;;;0.40;;
20365;SDS011;10341;49.894;8.822;2023-01-15T01:54:41;0.47;;;0.38;;
20365;SDS011;10341;49.894;8.822;2023-01-15T02:00:04;1.75;;;0.28;;
20365;SDS011;10341;49.894;8.822;2023-01-15T02:05:32;0.75;;;0.35;;
20365;SDS011;10341;49.894;8.822;2023-01-15T02:10:55;0.32;;;0.32;;
20365;SDS011;10341;49.894;8.822;2023-01-15T02:16:27;0.15;;;0.15;;
20365;SDS011;10341;49.894;8.822;2023-01-15T02:22:13;1.00;;;0.30;;
20365;SDS011;10341;49.894;8.822;2023-01-15T02:27:52;0.70;;;0.30;;
20365;SDS011;10341;49.894;8.822;2023-01-15T02:33:21;0.52;;;0.47;;
20365;SDS011;10341;49.894;8.822;2023-01-15T02:38:52;0.38;;;0.30;;
20365;SDS011;10341;49.894;8.822;2023-01-15T02:44:17;0.40;;;0.20;;
20365;SDS011;10341;49.894;8.822;2023-01-15T02:49:40;0.52;;;0.30;;
20365;SDS011;10341;49.894;8.822;2023-01-15T02:55:13;0.70;;;0.15;;
20365;SDS011;10341;49.894;8.822;2023-01-15T03:00:41;0.35;;;0.35;;
20365;SDS011;10341;49.894;8.822;2023-01-15T03:06:11;0.47;;;0.20;;
20365;SDS011;10341;49.894;8.822;2023-01-15T03:11:38;0.38;;;0.20;;
20365;SDS011;10341;49.894;8.822;2023-01-15T03:17:06;0.75;;;0.25;;
20365;SDS011;10341;49.894;8.822;2023-01-15T03:22:39;0.57;;;0.30;;
20365;SDS011;10341;49.894;8.822;2023-01-15T03:28:04;0.20;;;0.20;;
20365;SDS011;10341;49.894;8.822;2023-01-15T03:33:25;0.10;;;0.10;;
20365;SDS011;10341;49.894;8.822;2023-01-15T03:38:48;0.10;;;0.00;;
20365;SDS011;10341;49.894;8.822;2023-01-15T03:44:41;0.25;;;0.00;;
20365;SDS011;10341;49.894;8.822;2023-01-15T03:50:25;1.58;;;0.20;;
20365;SDS011;10341;49.894;8.822;2023-01-15T03:55:51;1.08;;;0.10;;
20365;SDS011;10341;49.894;8.822;2023-01-15T04:01:33;0.45;;;0.10;;
20365;SDS011;10341;49.894;8.822;2023-01-15T04:06:57;0.22;;;0.10;;
20365;SDS011;10341;49.894;8.822;2023-01-15T04:12:18;0.32;;;0.10;;
20365;SDS011;10341;49.894;8.822;2023-01-15T04:17:40;0.30;;;0.10;;
20365;SDS011;10341;49.894;8.822;2023-01-15T04:28:19;0.10;;;0.10;;
20365;SDS011;10341;49.894;8.822;2023-01-15T04:33:39;0.10;;;0.10;;
20365;SDS011;10341;49.894;8.822;2023-01-15T04:38:59;0.17;;;0.10;;
20365;SDS011;10341;49.894;8.822;2023-01-15T04:44:18;1.92;;;0.10;;
20365;SDS011;10341;49.894;8.822;2023-01-15T04:49:37;0.73;;;0.27;;
20365;SDS011;10341;49.894;8.822;2023-01-15T04:54:56;0.75;;;0.20;;
20365;SDS011;10341;49.894;8.822;2023-01-15T05:00:15;0.83;;;0.20;;
20365;SDS011;10341;49.894;8.822;2023-01-15T05:10:54;0.95;;;0.20;;
20365;SDS011;10341;49.894;8.822;2023-01-15T05:16:15;1.08;;;0.28;;
20365;SDS011;10341;49.894;8.822;2023-01-15T05:21:44;0.20;;;0.20;;
20365;SDS011;10341;49.894;8.822;2023-01-15T05:27:04;0.57;;;0.20;;
20365;SDS011;10341;49.894;8.822;2023-01-15T05:32:24;1.20;;;0.20;;
20365;SDS011;10341;49.894;8.822;2023-01-15T05:37:43;1.63;;;0.40;;
20365;SDS011;10341;49.894;8.822;2023-01-15T05:43:02;3.23;;;0.80;;
20365;SDS011;10341;49.894;8.822;2023-01-15T05:48:21;0.40;;;0.32;;
20365;SDS011;10341;49.894;8.822;2023-01-15T05:53:40;1.77;;;0.20;;
20365;SDS011;10341;49.894;8.822;2023-01-15T05:58:59;0.10;;;0.10;;
20365;SDS011;10341;49.894;8.822;2023-01-15T06:04:19;0.67;;;0.30;;
20365;SDS011;10341;49.894;8.822;2023-01-15T06:09:39;0.20;;;0.15;;
20365;SDS011;10341;49.894;8.822;2023-01-15T06:14:58;0.33;;;0.10;;
20365;SDS011;10341;49.894;8.822;2023-01-15T06:20:17;0.20;;;0.10;;
20365;SDS011;10341;49.894;8.822;2023-01-15T06:25:36;0.00;;;0.00;;
20365;SDS011;10341;49.894;8.822;2023-01-15T06:30:56;1.92;;;0.20;;
20365;SDS011;10341;49.894;8.822;2023-01-15T06:36:16;0.50;;;0.20;;
20365;SDS011;10341;49.894;8.822;2023-01-15T06:41:39;0.55;;;0.17;;
20365;SDS011;10341;49.894;8.822;2023-01-15T06:47:17;0.20;;;0.20;;
20365;SDS011;10341;49.894;8.822;2023-01-15T06:52:40;1.38;;;0.30;;
20365;SDS011;10341;49.894;8.822;2023-01-15T06:58:01;0.47;;;0.30;;
20365;SDS011;10341;49.894;8.822;2023-01-15T07:03:21;1.23;;;0.75;;
20365;SDS011;10341;49.894;8.822;2023-01-15T07:08:41;0.32;;;0.20;;
20365;SDS011;10341;49.894;8.822;2023-01-15T07:14:00;2.00;;;0.30;;
20365;SDS011;10341;49.894;8.822;2023-01-15T07:19:25;0.45;;;0.25;;
20365;SDS011;10341;49.894;8.822;2023-01-15T07:24:45;0.93;;;0.28;;
20365;SDS011;10341;49.894;8.822;2023-01-15T07:30:04;0.60;;;0.47;;
20365;SDS011;10341;49.894;8.822;2023-01-15T07:35:23;1.48;;;0.50;;
20365;SDS011;10341;49.894;8.822;2023-01-15T07:40:43;0.80;;;0.67;;
20365;SDS011;10341;49.894;8.822;2023-01-15T07:46:02;1.70;;;0.50;;
20365;SDS011;10341;49.894;8.822;2023-01-15T07:51:40;0.80;;;0.40;;
20365;SDS011;10341;49.894;8.822;2023-01-15T07:56:59;0.50;;;0.40;;
20365;SDS011;10341;49.894;8.822;2023-01-15T08:02:18;0.45;;;0.40;;
20365;SDS011;10341;49.894;8.822;2023-01-15T08:07:38;0.20;;;0.20;;
20365;SDS011;10341;49.894;8.822;2023-01-15T08:12:58;0.20;;;0.20;;
20365;SDS011;10341;49.894;8.822;2023-01-15T08:18:36;0.40;;;0.17;;
20365;SDS011;10341;49.894;8.822;2023-01-15T08:23:56;0.30;;;0.20;;
20365;SDS011;10341;49.894;8.822;2023-01-15T08:29:15;0.20;;;0.20;;
20365;SDS011;10341;49.894;8.822;2023-01-15T08:34:34;0.10;;;0.10;;
20365;SDS011;10341;49.894;8.822;2023-01-15T08:39:53;2.60;;;1.60;;
20365;SDS011;10341;49.894;8.822;2023-01-15T08:45:12;0.67;;;0.50;;
20365;SDS011;10341;49.894;8.822;2023-01-15T08:55:51;0.93;;;0.70;;
20365;SDS011;10341;49.894;8.822;2023-01-15T09:01:10;0.95;;;0.60;;
20365;SDS011;10341;49.894;8.822;2023-01-15T09:06:33;0.22;;;0.20;;
20365;SDS011;10341;49.894;8.822;2023-01-15T09:11:52;0.98;;;0.50;;
20365;SDS011;10341;49.894;8.822;2023-01-15T09:17:12;1.40;;;0.90;;
20365;SDS011;10341;49.894;8.822;2023-01-15T09:22:31;0.50;;;0.38;;
20365;SDS011;10341;49.894;8.822;2023-01-15T09:27:54;0.70;;;0.20;;
20365;SDS011;10341;49.894;8.822;2023-01-15T09:33:14;0.10;;;0.10;;
20365;SDS011;10341;49.894;8.822;2023-01-15T09:38:33;1.40;;;0.77;;
20365;SDS011;10341;49.894;8.822;2023-01-15T09:44:03;2.50;;;1.67;;
20365;SDS011;10341;49.894;8.822;2023-01-15T10:00:47;1.15;;;0.80;;
20365;SDS011;10341;49.894;8.822;2023-01-15T10:06:16;1.20;;;0.93;;
20365;SDS011;10341;49.894;8.822;2023-01-15T10:12:03;3.90;;;2.08;;
20365;SDS011;10341;49.894;8.822;2023-01-15T10:17:48;0.60;;;0.55;;
20365;SDS011;10341;49.894;8.822;2023-01-15T10:46:36;2.13;;;0.80;;
20365;SDS011;10341;49.894;8.822;2023-01-15T10:52:02;1.00;;;0.65;;
20365;SDS011;10341;49.894;8.822;2023-01-15T11:03:00;0.70;;;0.40;;
20365;SDS011;10341;49.894;8.822;2023-01-15T11:08:25;2.17;;;0.43;;
20365;SDS011;10341;49.894;8.822;2023-01-15T11:13:51;2.05;;;0.35;;
20365;SDS011;10341;49.894;8.822;2023-01-15T11:19:32;2.00;;;0.47;;
20365;SDS011;10341;49.894;8.822;2023-01-15T11:24:58;2.95;;;0.38;;
20365;SDS011;10341;49.894;8.822;2023-01-15T11:30:26;1.52;;;0.50;;
20365;SDS011;10341;49.894;8.822;2023-01-15T11:35:56;0.17;;;0.17;;
20365;SDS011;10341;49.894;8.822;2023-01-15T11:41:27;1.92;;;0.25;;
20365;SDS011;10341;49.894;8.822;2023-01-15T11:47:10;2.15;;;0.63;;
20365;SDS011;10341;49.894;8.822;2023-01-15T11:52:50;0.55;;;0.40;;
20365;SDS011;10341;49.894;8.822;2023-01-15T11:58:13;0.68;;;0.30;;
20365;SDS011;10341;49.894;8.822;2023-01-15T12:03:33;0.30;;;0.30;;
20365;SDS011;10341;49.894;8.822;2023-01-15T12:14:37;2.25;;;0.95;;
20365;SDS011;10341;49.894;8.822;2023-01-15T12:31:18;2.30;;;0.40;;
20365;SDS011;10341;49.894;8.822;2023-01-15T12:36:45;0.85;;;0.40;;
20365;SDS011;10341;49.894;8.822;2023-01-15T12:42:12;0.85;;;0.32;;
20365;SDS011;10341;49.894;8.822;2023-01-15T12:48:00;1.25;;;0.40;;
20365;SDS011;10341;49.894;8.822;2023-01-15T12:58:46;0.70;;;0.25;;
20365;SDS011;10341;49.894;8.822;2023-01-15T13:04:41;1.55;;;0.40;;
20365;SDS011;10341;49.894;8.822;2023-01-15T13:10:14;1.65;;;0.50;;
20365;SDS011;10341;49.894;8.822;2023-01-15T13:15:37;1.50;;;0.60;;
20365;SDS011;10341;49.894;8.822;2023-01-15T13:21:12;3.55;;;0.85;;
20365;SDS011;10341;49.894;8.822;2023-01-15T13:32:31;2.38;;;0.70;;
20365;SDS011;10341;49.894;8.822;2023-01-15T13:38:04;2.13;;;0.47;;
20365;SDS011;10341;49.894;8.822;2023-01-15T13:48:52;0.93;;;0.40;;
20365;SDS011;10341;49.894;8.822;2023-01-15T13:59:41;0.98;;;0.60;;
20365;SDS011;10341;49.894;8.822;2023-01-15T14:05:28;2.90;;;0.52;;
20365;SDS011;10341;49.894;8.822;2023-01-15T14:10:50;0.65;;;0.25;;
20365;SDS011;10341;49.894;8.822;2023-01-15T14:33:43;2.70;;;0.70;;
20365;SDS011;10341;49.894;8.822;2023-01-15T14:39:29;2.40;;;0.85;;
20365;SDS011;10341;49.894;8.822;2023-01-15T15:07:16;2.80;;;0.93;;
20365;SDS011;10341;49.894;8.822;2023-01-15T15:23:35;4.95;;;1.02;;
20365;SDS011;10341;49.894;8.822;2023-01-15T15:28:59;0.95;;;0.47;;
20365;SDS011;10341;49.894;8.822;2023-01-15T15:39:55;5.38;;;0.90;;
20365;SDS011;10341;49.894;8.822;2023-01-15T15:45:23;1.30;;;0.50;;
20365;SDS011;10341;49.894;8.822;2023-01-15T15:51:04;3.28;;;0.80;;
20365;SDS011;10341;49.894;8.822;2023-01-15T15:57:02;5.35;;;1.30;;
20365;SDS011;10341;49.894;8.822;2023-01-15T16:02:27;2.03;;;0.68;;
20365;SDS011;10341;49.894;8.822;2023-01-15T16:07:54;2.00;;;0.82;;
20365;SDS011;10341;49.894;8.822;2023-01-15T16:13:18;4.07;;;1.05;;
20365;SDS011;10341;49.894;8.822;2023-01-15T16:19:02;4.88;;;0.80;;
20365;SDS011;10341;49.894;8.822;2023-01-15T16:24:23;2.13;;;0.90;;
20365;SDS011;10341;49.894;8.822;2023-01-15T16:29:47;2.92;;;0.90;;
20365;SDS011;10341;49.894;8.822;2023-01-15T16:35:18;3.72;;;1.27;;
20365;SDS011;10341;49.894;8.822;2023-01-15T16:40:42;3.67;;;1.17;;
20365;SDS011;10341;49.894;8.822;2023-01-15T16:46:04;2.35;;;1.15;;
20365;SDS011;10341;49.894;8.822;2023-01-15T16:51:35;3.05;;;1.48;;
20365;SDS011;10341;49.894;8.822;2023-01-15T16:57:03;4.97;;;1.05;;
20365;SDS011;10341;49.894;8.822;2023-01-15T17:02:43;1.60;;;1.00;;
20365;SDS011;10341;49.894;8.822;2023-01-15T17:08:04;3.08;;;1.23;;
20365;SDS011;10341;49.894;8.822;2023-01-15T17:13:37;3.45;;;2.17;;
20365;SDS011;10341;49.894;8.822;2023-01-15T17:18:58;4.45;;;1.15;;
20365;SDS011;10341;49.894;8.822;2023-01-15T17:29:37;2.88;;;2.10;;
20365;SDS011;10341;49.894;8.822;2023-01-15T17:34:57;3.90;;;1.42;;
20365;SDS011;10341;49.894;8.822;2023-01-15T17:40:18;5.47;;;1.20;;
20365;SDS011;10341;49.894;8.822;2023-01-15T17:45:38;2.35;;;1.02;;
20365;SDS011;10341;49.894;8.822;2023-01-15T17:51:04;5.28;;;1.52;;
20365;SDS011;10341;49.894;8.822;2023-01-15T17:56:27;2.08;;;1.08;;
20365;SDS011;10341;49.894;8.822;2023-01-15T18:02:08;7.85;;;3.03;;
20365;SDS011;10341;49.894;8.822;2023-01-15T18:07:52;6.45;;;1.70;;
20365;SDS011;10341;49.894;8.822;2023-01-15T18:13:16;8.18;;;2.97;;
20365;SDS011;10341;49.894;8.822;2023-01-15T18:18:35;4.50;;;1.48;;
20365;SDS011;10341;49.894;8.822;2023-01-15T18:23:55;8.23;;;2.85;;
20365;SDS011;10341;49.894;8.822;2023-01-15T18:29:16;22.23;;;7.43;;
20365;SDS011;10341;49.894;8.822;2023-01-15T18:34:36;8.82;;;2.35;;
20365;SDS011;10341;49.894;8.822;2023-01-15T18:39:55;4.00;;;1.67;;
20365;SDS011;10341;49.894;8.822;2023-01-15T18:45:15;5.43;;;1.30;;
20365;SDS011;10341;49.894;8.822;2023-01-15T18:50:53;2.80;;;1.00;;
20365;SDS011;10341;49.894;8.822;2023-01-15T18:56:13;3.10;;;1.40;;
20365;SDS011;10341;49.894;8.822;2023-01-15T19:01:53;4.80;;;1.23;;
20365;SDS011;10341;49.894;8.822;2023-01-15T19:07:14;4.05;;;1.08;;
20365;SDS011;10341;49.894;8.822;2023-01-15T19:12:34;3.75;;;1.33;;
20365;SDS011;10341;49.894;8.822;2023-01-15T19:17:54;2.63;;;1.00;;
20365;SDS011;10341;49.894;8.822;2023-01-15T19:23:32;2.90;;;1.10;;
20365;SDS011;10341;49.894;8.822;2023-01-15T19:28:51;5.40;;;1.08;;
20365;SDS011;10341;49.894;8.822;2023-01-15T19:34:11;1.67;;;0.90;;
20365;SDS011;10341;49.894;8.822;2023-01-15T19:39:31;3.45;;;1.35;;
20365;SDS011;10341;49.894;8.822;2023-01-15T19:44:50;4.90;;;1.35;;
20365;SDS011;10341;49.894;8.822;2023-01-15T19:50:39;3.83;;;1.00;;
20365;SDS011;10341;49.894;8.822;2023-01-15T19:56:01;3.90;;;1.30;;
20365;SDS011;10341;49.894;8.822;2023-01-15T20:01:21;3.67;;;1.00;;
20365;SDS011;10341;49.894;8.822;2023-01-15T20:06:41;2.78;;;0.98;;
20365;SDS011;10341;49.894;8.822;2023-01-15T20:12:00;2.00;;;1.15;;
20365;SDS011;10341;49.894;8.822;2023-01-15T20:17:38;2.40;;;1.27;;
20365;SDS011;10341;49.894;8.822;2023-01-15T20:22:58;4.00;;;1.10;;
20365;SDS011;10341;49.894;8.822;2023-01-15T20:28:18;2.28;;;1.13;;
20365;SDS011;10341;49.894;8.822;2023-01-15T20:33:38;1.10;;;0.80;;
20365;SDS011;10341;49.894;8.822;2023-01-15T20:38:57;5.13;;;1.80;;
20365;SDS011;10341;49.894;8.822;2023-01-15T20:44:17;2.55;;;1.30;;
20365;SDS011;10341;49.894;8.822;2023-01-15T20:49:55;3.20;;;1.10;;
20365;SDS011;10341;49.894;8.822;2023-01-15T20:55:14;3.78;;;1.30;;
20365;SDS011;10341;49.894;8.822;2023-01-15T21:00:35;5.40;;;1.38;;
20365;SDS011;10341;49.894;8.822;2023-01-15T21:05:55;1.83;;;0.90;;
20365;SDS011;10341;49.894;8.822;2023-01-15T21:11:15;3.10;;;1.08;;
20365;SDS011;10341;49.894;8.822;2023-01-15T21:16:36;2.88;;;0.80;;
20365;SDS011;10341;49.894;8.822;2023-01-15T21:21:55;3.00;;;1.00;;
20365;SDS011;10341;49.894;8.822;2023-01-15T21:27:15;7.70;;;2.00;;
20365;SDS011;10341;49.894;8.822;2023-01-15T21:32:34;2.45;;;1.30;;
20365;SDS011;10341;49.894;8.822;2023-01-15T21:37:54;1.98;;;0.85;;
20365;SDS011;10341;49.894;8.822;2023-01-15T21:43:13;2.05;;;1.13;;
20365;SDS011;10341;49.894;8.822;2023-01-15T21:48:52;6.32;;;1.85;;
20365;SDS011;10341;49.894;8.822;2023-01-15T21:54:15;2.20;;;0.90;;
20365;SDS011;10341;49.894;8.822;2023-01-15T21:59:34;3.53;;;0.90;;
20365;SDS011;10341;49.894;8.822;2023-01-15T22:04:54;3.13;;;1.13;;
20365;SDS011;10341;49.894;8.822;2023-01-15T22:10:14;4.57;;;1.20;;
20365;SDS011;10341;49.894;8.822;2023-01-15T22:15:33;3.75;;;0.95;;
20365;SDS011;10341;49.894;8.822;2023-01-15T22:20:59;2.27;;;1.00;;
20365;SDS011;10341;49.894;8.822;2023-01-15T22:26:20;3.35;;;0.80;;
20365;SDS011;10341;49.894;8.822;2023-01-15T22:31:40;5.07;;;1.00;;
20365;SDS011;10341;49.894;8.822;2023-01-15T22:37:00;1.27;;;0.80;;
20365;SDS011;10341;49.894;8.822;2023-01-15T22:42:19;2.25;;;0.90;;
20365;SDS011;10341;49.894;8.822;2023-01-15T22:47:50;4.82;;;1.00;;
20365;SDS011;10341;49.894;8.822;2023-01-15T22:53:09;4.43;;;1.40;;
20365;SDS011;10341;49.894;8.822;2023-01-15T22:58:28;5.53;;;0.70;;
20365;SDS011;10341;49.894;8.822;2023-01-15T23:03:47;2.90;;;0.80;;
20365;SDS011;10341;49.894;8.822;2023-01-15T23:09:07;2.78;;;0.70;;
20365;SDS011;10341;49.894;8.822;2023-01-15T23:14:26;1.52;;;0.80;;
20365;SDS011;10341;49.894;8.822;2023-01-15T23:19:46;3.55;;;0.82;;
20365;SDS011;10341;49.894;8.822;2023-01-15T23:25:05;2.90;;;0.90;;
20365;SDS011;10341;49.894;8.822;2023-01-15T23:30:26;2.53;;;0.60;;
20365;SDS011;10341;49.894;8.822;2023-01-15T23:35:45;3.83;;;0.80;;
20365;SDS011;10341;49.894;8.822;2023-01-15T23:41:06;2.92;;;0.98;;
20365;SDS011;10341;49.894;8.822;2023-01-15T23:46:31;4.43;;;0.80;;
20365;SDS011;10341;49.894;8.822;2023-01-15T23:51:51;1.85;;;0.77;;
20365;SDS011;10341;49.894;8.822;2023-01-15T23:57:10;2.67;;;0.82;;
